Kendall, MI (49062)

8:57 PM EST on January 29, 2015 (GMT -0500)
Gobles | Change Station
CLOSE
Current Station
Personal Weather Station
Location: Gobles, MI
Elevation: 860 ft
Nearby Weather Stations

Elev 860 ft 42.40 °N, 85.82 °W | Updated 9 minutes ago

Overcast
Overcast
30.6 °F
Feels Like 31 °F
N
1.7
Wind Variable Wind from SW

Today
High -- | Low -- °F
--% Chance of Precip.
Yesterday
High -- | Low -- °F
Precip. -- in
8:00 AM 5:53 PM
Waxing Gibbous, 79% visible
Pressure 30.12 in
Visibility 10.0 miles
Clouds Few 1900 ft
Overcast 3300 ft
Windchill 31 °F
Dew Point 29 °F
Humidity 92%
Rainfall 0.00 in
Snow Depth Not available.
UV 0 out of 12
Pollen .10 out of 12
Air Quality Not available.
Flu Activity Not available.
METAR KAZO 300153Z 31009KT 10SM BR FEW019 OVC033 00/M03 A3009 RMK AO2 UPB29E53 SLP198 P0000 I1000 T00001033

More Conditions Fewer Conditions

Pressure 30.12 in
Visibility 10.0 miles
Clouds Few 1900 ft
Overcast 3300 ft
Windchill 31 °F
Dew Point 29 °F
Humidity 92%
Rainfall 0.00 in
Snow Depth Not available.
UV 0 out of 12
Pollen .10 out of 12
Air Quality Not available.
Flu Activity Not available.
METAR KAZO 300153Z 31009KT 10SM BR FEW019 OVC033 00/M03 A3009 RMK AO2 UPB29E53 SLP198 P0000 I1000 T00001033

More Conditions Fewer Conditions

10-Day Weather Forecast

Almanac

Astronomy

Jan. 29, 2015 Rise Set
Actual Time
Civil Twilight
Nautical Twilight
Astronomical Twilight
Moon
Length of Visible Light
Length of Day
Tomorrow will be .
, % of the Moon is Illuminated

Today's Extremes

State Highs State Lows

Community

WunderPhotos

Upload Photos

1,791,683 photos uploaded!

WunderBlogs® & News

Nearby

Air Quality

  Air Quality AQ Index Pollutant
Not available.

Snow Depth

Station Depth Elevation

Earthquake Activity

City Distance Mag. Time & Date
Minimum magnitude displayed is 2.5.

Coastal Water Temperatures

Place Temperature

Nearby Weather Stations